Latest Weather Observations for Cape Jaffa

IDS60801

Issued at 2:31 am CST Tuesday 30 May 2017 (issued every 30 minutes, with the page automatically refreshed every 10 minutes)

About weather observations | Map of weather stations | Latest weather observations for SA | Other Formats
Station Details ID: 026095 Name: THE LIMESTONE Lat: -36.97 Lon: 139.72 Height: 17.0 m
Data from the previous 72 hours. | See also: Recent months at Cape Jaffa
Date/Time
CST
Temp
°C
App
Temp
°C
Dew
Point
°C
Rel
Hum
%
Delta-T
°C
Wind Press
QNH
hPa
Press
MSL
hPa
Rain since
9am
mm
Dir  Spd
km/h
Gust
km/h
Spd
kts
Gust
kts
30/02:00am 13.1 6.3 7.8 70 2.6 SW 33 50 18 27 1020.8 1020.8 4.6
30/01:30am 12.9 6.4 9.0 77 2.0 SW 33 48 18 26 1020.3 1020.3 4.6
30/01:00am 12.6 5.4 9.1 79 1.8 SW 37 52 20 28 1020.0 1020.0 4.6
30/12:30am 12.5 5.8 10.9 90 0.8 SW 37 54 20 29 1019.8 1019.8 4.4
30/12:00am 13.1 8.3 11.5 90 0.8 WSW 28 43 15 23 1019.7 1019.7 4.2
 
Date/Time
CST
Temp
°C
App
Temp
°C
Dew
Point
°C
Rel
Hum
%
Delta-T
°C
Wind Press
QNH
hPa
Press
MSL
hPa
Rain since
9am
mm
Dir  Spd
km/h
Gust
km/h
Spd
kts
Gust
kts
29/11:33pm 13.2 6.2 11.4 89 1.0 W 39 59 21 32 1019.8 1019.8 3.2
29/11:30pm 13.1 5.6 11.0 87 1.1 W 41 59 22 32 1019.7 1019.7 3.2
29/11:21pm 14.7 9.1 10.1 74 2.4 W 30 50 16 27 1019.5 1019.5 3.2
29/11:00pm 14.1 8.7 9.5 74 2.4 W 28 37 15 20 1019.5 1019.5 3.2
29/10:30pm 13.8 8.4 9.6 76 2.1 W 28 37 15 20 1019.4 1019.4 3.2
29/10:00pm 13.6 10.3 11.7 88 1.0 WNW 20 28 11 15 1019.5 1019.5 3.2
29/09:30pm 12.7 9.5 11.4 92 0.7 WNW 19 22 10 12 1019.7 1019.7 3.2
29/09:00pm 13.1 7.8 11.2 88 1.0 WNW 30 43 16 23 1019.9 1019.9 2.8
29/08:30pm 13.7 9.7 10.3 80 1.8 WNW 22 33 12 18 1019.8 1019.8 2.6
29/08:00pm 14.0 10.1 9.6 75 2.3 WNW 20 30 11 16 1019.6 1019.6 2.6
29/07:30pm 14.0 9.9 10.0 77 2.1 WNW 22 32 12 17 1019.7 1019.7 2.6
29/07:00pm 13.7 10.0 10.1 79 1.9 WNW 20 28 11 15 1019.5 1019.5 2.6
29/06:30pm 13.6 9.7 9.6 77 2.0 WNW 20 26 11 14 1019.4 1019.4 2.6
29/06:00pm 13.3 10.3 10.5 83 1.5 WNW 17 24 9 13 1019.2 1019.2 2.6
29/05:30pm 13.1 9.6 10.1 82 1.5 WNW 19 26 10 14 1019.0 1019.0 2.6
29/05:00pm 13.9 10.3 10.5 80 1.8 WNW 20 30 11 16 1018.8 1018.8 2.6
29/04:30pm 13.8 10.4 10.6 81 1.7 WNW 19 26 10 14 1018.7 1018.7 2.6
29/04:00pm 13.9 11.6 11.6 86 1.2 WNW 15 22 8 12 1018.5 1018.5 2.6
29/03:30pm 13.4 11.1 11.6 89 1.0 WNW 15 24 8 13 1018.6 1018.6 2.6
29/03:00pm 13.1 8.8 10.6 85 1.3 WNW 24 32 13 17 1018.7 1018.7 2.4
29/02:30pm 13.2 10.5 11.8 91 0.7 WNW 17 28 9 15 1018.7 1018.7 2.4
29/02:00pm 14.4 10.8 11.7 84 1.4 NW 22 30 12 16 1018.7 1018.7 1.4
29/01:30pm 14.3 10.9 12.5 89 1.0 NW 22 33 12 18 1019.0 1019.0 1.4
29/01:00pm 13.2 9.5 11.4 89 1.0 NNW 22 30 12 16 1019.3 1019.3 1.4
29/12:30pm 13.8 10.0 11.0 83 1.5 NNW 22 33 12 18 1019.5 1019.5 1.4
29/12:00pm 13.0 10.7 11.6 91 0.7 NW 15 20 8 11 1019.9 1019.9 1.4
29/11:30am 13.5 9.5 10.3 81 1.7 NW 22 33 12 18 1020.2 1020.2 0.0
29/11:00am 14.7 11.0 10.3 75 2.3 NNW 20 26 11 14 1020.3 1020.3 0.0
29/10:30am 14.4 11.0 9.0 70 2.7 NW 17 24 9 13 1020.4 1020.4 0.0
29/10:00am 13.8 11.0 8.6 71 2.6 NW 13 20 7 11 1020.4 1020.4 0.0
29/09:30am 14.0 10.6 7.5 65 3.2 W 15 22 8 12 1020.2 1020.2 0.0
29/09:00am 13.0 10.5 8.3 73 2.3 NW 11 17 6 9 1020.2 1020.2 0.6
29/08:30am 10.8 9.2 6.2 73 2.1 NNE 4 4 2 2 1019.9 1019.9 0.6
29/08:00am 11.0 9.2 5.5 69 2.5 NNW 4 4 2 2 1019.7 1019.7 0.6
29/07:30am 11.9 9.6 5.8 66 2.8 NW 7 9 4 5 1019.5 1019.5 0.6
29/07:00am 11.6 9.4 5.3 65 2.9 WNW 6 7 3 4 1019.3 1019.3 0.6
29/06:30am 11.2 8.4 5.1 66 2.8 WNW 9 13 5 7 1019.2 1019.2 0.6
29/06:00am 10.3 7.0 4.5 67 2.6 W 11 15 6 8 1019.0 1019.0 0.6
29/05:30am 11.4 7.0 4.6 63 3.1 WSW 17 20 9 11 1018.8 1018.8 0.6
29/05:00am 11.6 7.3 5.3 65 2.9 WSW 17 22 9 12 1018.7 1018.7 0.6
29/04:30am 11.5 7.0 4.3 61 3.2 WSW 17 22 9 12 1018.5 1018.5 0.6
29/04:00am 11.5 7.1 4.5 62 3.2 WSW 17 22 9 12 1018.5 1018.5 0.6
29/03:30am 11.1 6.7 4.6 64 2.9 WSW 17 24 9 13 1018.4 1018.4 0.6
29/03:00am 10.8 6.2 3.8 62 3.1 WSW 17 22 9 12 1018.3 1018.3 0.6
29/02:30am 11.6 6.7 4.1 60 3.4 WSW 19 28 10 15 1018.2 1018.2 0.6
29/02:00am 11.2 6.3 5.1 66 2.8 WSW 20 28 11 15 1018.2 1018.2 0.6
29/01:30am 11.4 6.1 4.8 64 3.0 WSW 22 30 12 16 1018.0 1018.0 0.6
29/01:00am 11.1 6.1 4.8 65 2.9 WSW 20 26 11 14 1017.9 1017.9 0.6
29/12:30am 11.3 5.4 4.1 61 3.2 WSW 24 30 13 16 1017.8 1017.8 0.6
29/12:00am 11.4 6.1 4.8 64 3.0 WSW 22 30 12 16 1017.8 1017.8 0.6
 
Date/Time
CST
Temp
°C
App
Temp
°C
Dew
Point
°C
Rel
Hum
%
Delta-T
°C
Wind Press
QNH
hPa
Press
MSL
hPa
Rain since
9am
mm
Dir  Spd
km/h
Gust
km/h
Spd
kts
Gust
kts
28/11:30pm 10.9 5.4 3.9 62 3.1 WSW 22 30 12 16 1017.7 1017.7 0.6
28/11:00pm 10.9 5.9 4.8 66 2.8 SW 20 30 11 16 1017.6 1017.6 0.6
28/10:30pm 11.0 5.7 4.9 66 2.8 WSW 22 32 12 17 1017.5 1017.5 0.6
28/10:00pm 10.4 4.5 6.0 74 2.0 W 26 37 14 20 1017.5 1017.5 0.6
28/09:39pm 10.6 4.5 6.4 75 2.0 SW 28 48 15 26 1017.4 1017.4 0.6
28/09:30pm 11.4 6.4 4.6 63 3.1 SW 20 30 11 16 1017.3 1017.3 0.4
28/09:00pm 11.3 4.5 5.2 66 2.8 WSW 30 37 16 20 1017.1 1017.1 0.4
28/08:30pm 11.5 5.8 4.9 64 3.0 SW 24 35 13 19 1016.6 1016.6 0.4
28/08:00pm 11.3 4.9 5.4 67 2.7 SW 28 43 15 23 1016.3 1016.3 0.4
28/07:36pm 10.5 3.9 4.2 65 2.8 SW 28 59 15 32 1015.8 1015.8 0.2
28/07:30pm 11.2 5.6 5.3 67 2.7 SW 24 32 13 17 1016.1 1016.1 0.2
28/07:00pm 11.4 5.3 4.8 64 3.0 SW 26 37 14 20 1015.7 1015.7 0.2
28/06:33pm 11.7 4.7 5.8 67 2.7 SW 32 50 17 27 1015.0 1015.0 0.2
28/06:30pm 11.5 5.2 5.8 68 2.6 SW 28 43 15 23 1015.1 1015.1 0.2
28/06:00pm 11.4 3.8 3.9 60 3.3 SW 33 43 18 23 1014.7 1014.7 0.2
28/05:30pm 11.3 3.9 5.0 65 2.9 SW 33 43 18 23 1014.3 1014.3 0.2
28/05:00pm 11.6 4.4 5.7 67 2.7 SW 33 44 18 24 1013.7 1013.7 0.2
28/04:30pm 11.6 5.1 6.3 70 2.5 WSW 30 37 16 20 1013.6 1013.6 0.2
28/04:00pm 11.6 4.4 5.9 68 2.7 SW 33 44 18 24 1013.1 1013.1 0.2
28/03:30pm 10.4 2.9 6.4 76 1.9 SW 35 65 19 35 1013.0 1013.0 0.2
28/03:23pm 12.2 5.5 5.4 63 3.2 SW 30 54 16 29 1012.7 1012.7 0.0
28/03:00pm 12.7 4.6 3.4 53 4.1 SW 35 48 19 26 1012.3 1012.3 0.0
28/02:30pm 12.9 5.4 4.6 57 3.8 SW 33 46 18 25 1012.1 1012.1 0.0
28/02:00pm 12.2 3.1 5.8 65 3.0 SW 43 61 23 33 1011.9 1011.9 0.0
28/01:55pm 13.7 5.3 5.8 59 3.7 WSW 39 61 21 33 1011.8 1011.8 0.0
28/01:30pm 12.6 5.3 4.6 58 3.7 WSW 32 46 17 25 1011.7 1011.7 0.0
28/01:00pm 12.4 3.5 5.1 61 3.4 SW 41 54 22 29 1011.6 1011.6 0.0
28/12:45pm 12.8 3.8 6.2 64 3.1 WSW 43 61 23 33 1011.3 1011.3 0.0
28/12:30pm 13.1 5.2 4.5 56 3.9 WSW 35 54 19 29 1011.4 1011.4 0.0
28/12:09pm 13.4 4.4 4.6 55 4.0 WSW 41 67 22 36 1011.2 1011.2 0.0
28/12:00pm 12.7 4.9 4.9 59 3.6 WSW 35 48 19 26 1011.4 1011.4 0.0
28/11:30am 12.4 5.1 5.3 62 3.3 WSW 33 44 18 24 1011.7 1011.7 0.0
28/11:00am 12.9 5.4 6.3 64 3.1 WSW 35 44 19 24 1011.6 1011.6 0.0
28/10:30am 12.6 4.8 5.1 60 3.5 WSW 35 44 19 24 1011.5 1011.5 0.0
28/10:00am 11.0 1.8 5.5 69 2.5 SW 43 63 23 34 1011.4 1011.4 0.0
28/09:49am 12.4 3.5 5.3 62 3.3 WSW 41 70 22 38 1011.1 1011.1 0.0
28/09:30am 13.1 5.3 6.5 64 3.2 WSW 37 52 20 28 1010.9 1010.9 0.0
28/09:00am 12.3 4.2 5.2 62 3.3 WSW 37 50 20 27 1010.6 1010.6 7.4
28/08:30am 11.8 3.3 5.0 63 3.1 WSW 39 48 21 26 1010.3 1010.3 7.4
28/08:00am 12.0 4.2 5.0 62 3.2 WSW 35 46 19 25 1010.0 1010.0 7.4
28/07:30am 11.2 2.9 5.9 70 2.5 WSW 39 48 21 26 1009.9 1009.9 7.4
28/07:20am 11.3 4.3 6.2 71 2.4 W 32 50 17 27 1009.7 1009.7 7.4
28/07:00am 11.2 3.0 6.5 73 2.2 WSW 39 52 21 28 1009.7 1009.7 7.4
28/06:30am 11.9 4.5 5.1 63 3.1 WSW 33 46 18 25 1009.5 1009.5 7.2
28/06:00am 11.6 5.4 6.1 69 2.6 WSW 28 37 15 20 1009.4 1009.4 7.2
28/05:30am 12.0 4.1 6.3 68 2.7 WSW 37 56 20 30 1009.1 1009.1 7.2
28/05:29am 12.3 4.7 5.9 65 3.0 WSW 35 56 19 30 1009.2 1009.2 7.2
28/05:00am 11.7 5.2 6.6 71 2.4 WSW 30 39 16 21 1009.2 1009.2 7.2
28/04:30am 11.7 5.7 7.0 73 2.3 SW 28 39 15 21 1009.0 1009.0 7.2
28/04:00am 12.3 6.2 6.4 67 2.8 WSW 28 41 15 22 1009.0 1009.0 7.2
28/03:30am 11.9 4.8 6.6 70 2.5 WSW 33 44 18 24 1009.2 1009.2 7.2
28/03:00am 11.9 5.4 6.4 69 2.6 WSW 30 39 16 21 1009.3 1009.3 7.2
28/02:30am 11.5 5.5 7.2 75 2.1 WSW 28 43 15 23 1009.2 1009.2 7.2
28/02:00am 11.1 4.1 8.3 83 1.4 WSW 35 50 19 27 1009.4 1009.4 7.2
28/01:46am 12.0 6.2 7.9 76 2.0 WSW 28 46 15 25 1009.1 1009.1 7.0
28/01:30am 11.1 7.1 8.1 82 1.5 W 19 26 10 14 1009.3 1009.3 7.0
28/01:00am 10.6 3.7 7.1 79 1.7 W 33 46 18 25 1009.4 1009.4 7.0
28/12:30am 12.4 6.5 6.0 65 3.0 W 26 35 14 19 1009.4 1009.4 5.6
28/12:00am 12.4 5.7 5.8 64 3.1 WSW 30 39 16 21 1009.5 1009.5 5.6
 
Date/Time
CST
Temp
°C
App
Temp
°C
Dew
Point
°C
Rel
Hum
%
Delta-T
°C
Wind Press
QNH
hPa
Press
MSL
hPa
Rain since
9am
mm
Dir  Spd
km/h
Gust
km/h
Spd
kts
Gust
kts
27/11:30pm 12.4 5.8 6.0 65 3.0 WSW 30 43 16 23 1009.6 1009.6 5.6
27/11:00pm 12.3 6.2 6.4 67 2.8 WSW 28 37 15 20 1009.5 1009.5 5.6
27/10:30pm 12.4 6.7 6.7 68 2.7 WSW 26 37 14 20 1009.7 1009.7 5.6
27/10:00pm 12.4 7.3 7.5 72 2.4 WSW 24 32 13 17 1009.7 1009.7 5.6
27/09:30pm 12.3 6.0 8.8 79 1.8 WSW 32 43 17 23 1009.7 1009.7 5.6
27/09:00pm 11.6 5.3 8.8 83 1.4 WSW 32 44 17 24 1009.6 1009.6 5.6
27/08:30pm 12.3 7.6 9.3 82 1.5 WSW 24 33 13 18 1009.4 1009.4 4.8
27/08:00pm 13.4 9.6 8.9 74 2.3 W 19 35 10 19 1009.2 1009.2 3.6
27/07:30pm 13.2 9.1 8.7 74 2.3 W 20 26 11 14 1009.1 1009.1 3.6
27/07:00pm 13.1 8.9 8.4 73 2.3 WSW 20 28 11 15 1008.8 1008.8 3.6
27/06:30pm 12.9 7.2 8.4 74 2.2 WSW 28 37 15 20 1008.4 1008.4 3.6
27/06:00pm 12.9 6.7 10.1 83 1.4 SW 33 44 18 24 1008.1 1008.1 3.6
27/05:30pm 13.2 9.4 11.3 88 1.0 WNW 22 48 12 26 1007.9 1007.8 2.6
27/05:29pm 13.4 10.0 11.3 87 1.1 WNW 20 48 11 26 1008.0 1008.0 2.6
27/05:00pm 13.0 10.6 10.2 83 1.4 NW 13 19 7 10 1007.7 1007.6 2.0
27/04:30pm 13.7 10.5 11.8 88 1.0 NW 20 28 11 15 1008.2 1008.2 1.6
27/04:00pm 13.0 9.8 11.1 88 1.0 NW 19 30 10 16 1008.1 1008.1 1.6
27/03:30pm 13.9 9.3 11.1 83 1.5 NW 26 33 14 18 1008.2 1008.2 0.4
27/03:00pm 14.5 9.5 10.9 79 1.9 NNW 28 44 15 24 1008.0 1008.0 0.2
27/02:30pm 15.9 12.1 11.1 73 2.6 NW 22 32 12 17 1008.1 1008.1 0.0
27/02:00pm 16.7 13.1 13.2 80 2.0 NNW 24 32 13 17 1008.2 1008.2 0.0
27/01:30pm 17.6 14.1 13.5 77 2.3 NNW 24 35 13 19 1008.4 1008.4 0.0
27/01:00pm 17.1 12.4 13.2 78 2.2 N 30 37 16 20 1008.5 1008.5 0.0
27/12:30pm 16.7 11.3 12.3 75 2.4 N 32 39 17 21 1008.8 1008.8 0.0
27/12:00pm 16.2 9.6 11.2 72 2.7 N 37 43 20 23 1009.4 1009.4 0.0
27/11:30am 16.0 10.1 11.2 73 2.6 N 33 43 18 23 1009.9 1009.9 0.0
27/11:00am 15.7 9.7 10.9 73 2.6 N 33 41 18 22 1010.4 1010.4 0.0
27/10:30am 15.4 9.7 11.0 75 2.3 N 32 43 17 23 1010.9 1010.9 0.0
27/10:00am 14.0 8.0 10.0 77 2.1 N 32 43 17 23 1011.2 1011.2 0.0
27/09:30am 14.3 9.1 10.1 76 2.2 N 28 35 15 19 1011.4 1011.4 0.0
27/09:00am 13.8 8.5 9.8 77 2.1 N 28 35 15 19 1011.7 1011.7 0.0
27/08:30am 13.6 8.7 10.0 79 1.9 N 26 32 14 17 1012.0 1012.0 0.0
27/08:00am 13.1 8.5 9.7 80 1.7 NNE 24 30 13 16 1012.0 1012.0 0.0
27/07:30am 13.2 8.6 9.8 80 1.7 NNE 24 33 13 18 1011.9 1011.9 0.0
27/07:00am 13.3 8.8 9.9 80 1.7 NNE 24 30 13 16 1012.2 1012.2 0.0
27/06:30am 13.8 8.6 10.2 79 1.9 N 28 33 15 18 1012.3 1012.3 0.0
27/06:00am 14.5 9.4 10.7 78 2.0 N 28 37 15 20 1012.5 1012.5 0.0
27/05:30am 14.4 9.3 10.6 78 2.0 N 28 35 15 19 1012.6 1012.6 0.0
27/05:00am 14.0 9.7 10.8 81 1.7 N 24 32 13 17 1012.7 1012.7 0.0
27/04:30am 14.1 9.8 10.7 80 1.8 N 24 32 13 17 1012.8 1012.8 0.0
27/04:00am 14.2 9.1 10.6 79 1.9 N 28 35 15 19 1013.0 1013.0 0.0
27/03:30am 13.8 9.9 10.8 82 1.6 N 22 28 12 15 1013.2 1013.2 0.0
27/03:00am 13.3 9.3 10.5 83 1.5 NNE 22 28 12 15 1013.5 1013.5 0.0

Other Formats:

Comma delimited format used in spreadsheet applications
http://www.bom.gov.au/fwo/IDS60801/IDS60801.94813.axf

JavaScript Object Notation format (JSON) in row-major order
http://www.bom.gov.au/fwo/IDS60801/IDS60801.94813.json